createdAt,value
2023-05-16T00:02:04.698Z,23.82
2023-05-16T00:04:34.052Z,23.69
2023-05-16T00:07:02.518Z,23.61
2023-05-16T00:09:30.702Z,23.60
2023-05-16T00:11:59.739Z,23.66
2023-05-16T00:14:28.196Z,23.67
2023-05-16T00:16:58.615Z,23.63
2023-05-16T00:19:27.662Z,23.59
2023-05-16T00:21:55.910Z,23.54
2023-05-16T00:24:24.078Z,23.53
2023-05-16T00:26:52.281Z,23.53
2023-05-16T00:29:20.518Z,23.50
2023-05-16T00:31:48.898Z,23.46
2023-05-16T00:34:17.394Z,23.37
2023-05-16T00:36:45.637Z,23.17
2023-05-16T00:39:14.013Z,23.07
2023-05-16T00:41:42.318Z,23.10
2023-05-16T00:44:10.519Z,23.08
2023-05-16T00:46:38.940Z,23.05
2023-05-16T00:49:07.916Z,23.05
2023-05-16T00:51:36.548Z,23.05
2023-05-16T00:54:05.060Z,23.00
2023-05-16T00:56:33.761Z,22.98
2023-05-16T00:59:02.268Z,22.77
2023-05-16T01:01:31.351Z,22.64
2023-05-16T01:04:01.658Z,22.56
2023-05-16T01:06:30.130Z,22.44
2023-05-16T01:08:58.320Z,22.36
2023-05-16T01:11:32.437Z,22.31
2023-05-16T01:14:18.696Z,22.16
2023-05-16T01:17:09.958Z,22.04
2023-05-16T01:19:41.196Z,21.90
2023-05-16T01:22:38.535Z,21.83
2023-05-16T01:25:33.913Z,21.89
2023-05-16T01:28:04.220Z,21.92
2023-05-16T01:30:37.419Z,21.90
2023-05-16T01:33:05.939Z,21.81
2023-05-16T01:35:35.168Z,21.70
2023-05-16T01:38:22.465Z,21.60
2023-05-16T01:40:57.033Z,21.53
2023-05-16T01:43:53.620Z,21.46
2023-05-16T01:46:30.775Z,21.41
2023-05-16T01:49:18.664Z,21.38
2023-05-16T01:51:57.046Z,21.28
2023-05-16T01:54:28.900Z,21.23
2023-05-16T01:56:58.185Z,21.15
2023-05-16T01:59:27.195Z,21.11
2023-05-16T02:01:58.358Z,21.08
2023-05-16T02:04:27.080Z,21.12
2023-05-16T02:06:55.647Z,21.10
2023-05-16T02:09:24.011Z,21.07
2023-05-16T02:11:52.236Z,20.99
2023-05-16T02:14:20.416Z,20.84
2023-05-16T02:16:50.228Z,20.71
2023-05-16T02:19:18.701Z,20.57
2023-05-16T02:21:47.029Z,20.42
2023-05-16T02:24:15.403Z,20.38
2023-05-16T02:26:43.775Z,20.30
2023-05-16T02:29:12.072Z,20.26
2023-05-16T02:31:40.416Z,20.27
2023-05-16T02:34:08.727Z,20.22
2023-05-16T02:36:37.125Z,20.20
2023-05-16T02:39:05.466Z,20.19
2023-05-16T02:41:34.064Z,20.08
2023-05-16T02:44:02.272Z,19.99
2023-05-16T02:46:35.108Z,19.90
2023-05-16T02:49:04.474Z,19.84
2023-05-16T02:51:32.719Z,19.72
2023-05-16T02:54:01.975Z,19.67
2023-05-16T02:56:30.202Z,19.68
2023-05-16T02:58:58.380Z,19.69
2023-05-16T03:01:26.815Z,19.62
2023-05-16T03:03:55.217Z,19.54
2023-05-16T03:06:23.691Z,19.39
2023-05-16T03:08:51.978Z,19.32
2023-05-16T03:11:24.946Z,19.29
2023-05-16T03:13:53.211Z,19.21
2023-05-16T03:16:22.518Z,19.10
2023-05-16T03:18:51.179Z,19.02
2023-05-16T03:21:19.441Z,18.96
2023-05-16T03:23:47.925Z,18.93
2023-05-16T03:26:16.252Z,18.89
2023-05-16T03:28:44.445Z,18.82
2023-05-16T03:31:12.671Z,18.78
2023-05-16T03:33:40.983Z,18.74
2023-05-16T03:36:09.509Z,18.61
2023-05-16T03:38:38.428Z,18.54
2023-05-16T03:41:06.738Z,18.50
2023-05-16T03:43:34.978Z,18.47
2023-05-16T03:46:03.454Z,18.48
2023-05-16T03:48:31.825Z,18.50
2023-05-16T03:51:00.059Z,18.44
2023-05-16T03:53:28.456Z,18.36
2023-05-16T03:55:56.618Z,18.32
2023-05-16T03:58:24.888Z,18.25
2023-05-16T04:00:53.073Z,18.17
2023-05-16T04:03:21.772Z,18.09
2023-05-16T04:05:50.325Z,18.01
2023-05-16T04:08:18.512Z,18.01
2023-05-16T04:10:46.711Z,17.99
2023-05-16T04:13:16.391Z,17.93
2023-05-16T04:15:45.043Z,17.88
2023-05-16T04:18:14.343Z,17.89
2023-05-16T04:20:45.496Z,17.83
2023-05-16T04:23:13.845Z,17.79
2023-05-16T04:25:43.249Z,17.73
2023-05-16T04:28:11.548Z,17.65
2023-05-16T04:30:39.760Z,17.65
2023-05-16T04:33:08.067Z,17.67
2023-05-16T04:35:36.354Z,17.61
2023-05-16T04:38:05.539Z,17.53
2023-05-16T04:40:34.175Z,17.43
2023-05-16T04:43:02.510Z,17.40
2023-05-16T04:45:30.758Z,17.37
2023-05-16T04:47:59.379Z,17.36
2023-05-16T04:50:27.724Z,17.30
2023-05-16T04:52:56.571Z,17.22
2023-05-16T04:55:25.173Z,17.15
2023-05-16T04:57:53.504Z,17.04
2023-05-16T05:00:21.988Z,16.98
2023-05-16T05:02:50.470Z,16.94
2023-05-16T05:05:18.828Z,16.88
2023-05-16T05:07:47.660Z,16.80
2023-05-16T05:10:15.969Z,16.74
2023-05-16T05:12:44.205Z,16.69
2023-05-16T05:15:12.431Z,16.65
2023-05-16T05:17:40.769Z,16.66
2023-05-16T05:20:09.506Z,16.67
2023-05-16T05:22:37.673Z,16.72
2023-05-16T05:25:07.353Z,16.74
2023-05-16T05:27:35.585Z,16.75
2023-05-16T05:30:04.833Z,16.75
2023-05-16T05:32:33.063Z,16.71
2023-05-16T05:35:01.443Z,16.68
2023-05-16T05:37:29.953Z,16.62
2023-05-16T05:39:58.398Z,16.58
2023-05-16T05:42:26.590Z,16.61
2023-05-16T05:44:54.839Z,16.59
2023-05-16T05:47:23.176Z,16.60
2023-05-16T05:49:52.045Z,16.64
2023-05-16T05:52:20.272Z,16.65
2023-05-16T05:54:49.906Z,16.62
2023-05-16T05:57:18.161Z,16.54
2023-05-16T05:59:46.339Z,16.50
2023-05-16T06:02:15.171Z,16.48
2023-05-16T06:04:43.663Z,16.50
2023-05-16T06:07:11.868Z,16.51
2023-05-16T06:09:40.160Z,16.43
2023-05-16T06:12:08.646Z,16.31
2023-05-16T06:14:36.888Z,16.21
2023-05-16T06:17:05.154Z,16.18
2023-05-16T06:19:33.413Z,16.12
2023-05-16T06:22:01.658Z,16.12
2023-05-16T06:24:30.767Z,16.21
2023-05-16T06:26:58.980Z,16.28
2023-05-16T06:29:27.483Z,16.31
2023-05-16T06:31:55.823Z,16.33
2023-05-16T06:34:28.890Z,16.33
2023-05-16T06:36:57.109Z,16.31
2023-05-16T06:39:25.290Z,16.32
2023-05-16T06:41:56.325Z,16.22
2023-05-16T06:44:25.408Z,16.23
2023-05-16T06:46:53.847Z,16.16
2023-05-16T06:49:22.184Z,16.08
2023-05-16T06:51:50.694Z,15.96
2023-05-16T06:54:18.915Z,15.92
2023-05-16T06:56:47.243Z,15.96
2023-05-16T06:59:15.461Z,15.97
2023-05-16T07:01:43.806Z,15.94
2023-05-16T07:04:12.158Z,15.91
2023-05-16T07:06:40.776Z,15.93
2023-05-16T07:09:09.282Z,15.92
2023-05-16T07:11:37.522Z,15.87
2023-05-16T07:14:05.777Z,15.85
2023-05-16T07:16:34.084Z,15.83
2023-05-16T07:19:02.490Z,15.88
2023-05-16T07:21:30.949Z,15.85
2023-05-16T07:23:59.213Z,15.87
2023-05-16T07:26:27.518Z,15.87
2023-05-16T07:28:56.168Z,15.83
2023-05-16T07:31:25.067Z,15.85
2023-05-16T07:33:53.300Z,15.88
2023-05-16T07:36:22.119Z,15.90
2023-05-16T07:38:50.714Z,15.92
2023-05-16T07:41:18.931Z,15.91
2023-05-16T07:43:47.177Z,15.94
2023-05-16T07:46:15.447Z,15.94
2023-05-16T07:48:43.745Z,15.95
2023-05-16T07:51:11.981Z,15.96
2023-05-16T07:53:40.261Z,15.97
2023-05-16T07:56:09.043Z,15.98
2023-05-16T07:58:37.380Z,15.97
2023-05-16T08:01:05.748Z,15.99
2023-05-16T08:03:34.198Z,16.06
2023-05-16T08:06:02.727Z,16.09
2023-05-16T08:08:31.485Z,16.12
2023-05-16T08:10:59.699Z,16.18
2023-05-16T08:13:27.960Z,16.22
2023-05-16T08:15:56.404Z,16.27
2023-05-16T08:18:25.075Z,16.26
2023-05-16T08:20:53.302Z,16.26
2023-05-16T08:23:22.026Z,16.26
2023-05-16T08:25:51.023Z,16.26
2023-05-16T08:28:19.258Z,16.24
2023-05-16T08:30:48.120Z,16.17
2023-05-16T08:33:16.911Z,16.19
2023-05-16T08:35:45.953Z,16.23
2023-05-16T08:38:14.227Z,16.26
2023-05-16T08:40:43.967Z,16.29
2023-05-16T08:43:12.859Z,16.32
2023-05-16T08:45:43.500Z,16.35
2023-05-16T08:48:12.825Z,16.34
2023-05-16T08:50:41.149Z,16.28
2023-05-16T08:53:10.713Z,16.28
2023-05-16T08:55:41.967Z,16.26
2023-05-16T08:58:10.469Z,16.27
2023-05-16T09:00:39.253Z,16.25
2023-05-16T09:03:07.799Z,16.27
2023-05-16T09:05:36.446Z,16.24
2023-05-16T09:08:04.766Z,16.19
2023-05-16T09:10:33.008Z,16.16
2023-05-16T09:13:01.260Z,16.13
2023-05-16T09:15:33.826Z,16.15
2023-05-16T09:18:03.928Z,16.16
2023-05-16T09:20:32.516Z,16.20
2023-05-16T09:23:01.718Z,16.25
2023-05-16T09:25:32.718Z,16.29
2023-05-16T09:28:03.526Z,16.30
2023-05-16T09:30:37.933Z,16.32
2023-05-16T09:33:08.889Z,16.35
2023-05-16T09:35:44.215Z,16.36
2023-05-16T09:38:18.550Z,16.32
2023-05-16T09:40:47.519Z,16.32
2023-05-16T09:43:19.265Z,16.31
2023-05-16T09:45:49.374Z,16.34
2023-05-16T09:48:18.807Z,16.35
2023-05-16T09:50:55.846Z,16.33
2023-05-16T09:53:33.300Z,16.34
2023-05-16T09:56:06.095Z,16.37
2023-05-16T09:58:35.978Z,16.39
2023-05-16T10:01:05.294Z,16.39
2023-05-16T10:03:36.541Z,16.36
2023-05-16T10:06:07.536Z,16.35
2023-05-16T10:08:37.747Z,16.33
2023-05-16T10:11:07.542Z,16.19
2023-05-16T10:13:37.506Z,16.15
2023-05-16T10:16:12.959Z,16.17
2023-05-16T10:18:42.357Z,16.20
2023-05-16T10:21:15.629Z,16.20
2023-05-16T10:23:45.148Z,16.23
2023-05-16T10:26:15.504Z,16.23
2023-05-16T10:28:44.259Z,16.24
2023-05-16T10:31:12.848Z,16.23
2023-05-16T10:33:42.018Z,16.21
2023-05-16T10:36:11.896Z,16.21
2023-05-16T10:38:41.479Z,16.19
2023-05-16T10:41:10.676Z,16.17
2023-05-16T10:43:39.012Z,16.19
2023-05-16T10:46:13.303Z,16.21
2023-05-16T10:48:43.268Z,16.13
2023-05-16T10:51:36.181Z,16.10
2023-05-16T10:54:10.998Z,16.10
2023-05-16T10:56:39.979Z,16.13
2023-05-16T10:59:29.364Z,16.13
2023-05-16T11:01:58.005Z,16.16
2023-05-16T11:04:53.540Z,16.18
2023-05-16T11:07:24.044Z,16.15
2023-05-16T11:10:07.744Z,16.15
2023-05-16T11:12:52.723Z,16.16
2023-05-16T11:15:30.867Z,16.13
2023-05-16T11:18:11.902Z,16.03
2023-05-16T11:20:41.281Z,15.97
2023-05-16T11:23:18.463Z,15.95
2023-05-16T11:25:48.799Z,15.97
2023-05-16T11:28:17.523Z,16.01
2023-05-16T11:30:50.760Z,16.05
2023-05-16T11:33:19.910Z,16.02
2023-05-16T11:38:44.384Z,16.05
2023-05-16T11:41:13.181Z,16.06
2023-05-16T11:43:46.953Z,16.07
2023-05-16T11:46:17.152Z,16.00
2023-05-16T11:48:47.418Z,15.96
2023-05-16T11:51:19.717Z,15.93
2023-05-16T11:53:51.333Z,15.91
2023-05-16T11:56:19.718Z,15.92
2023-05-16T11:58:48.788Z,15.97
2023-05-16T12:01:17.070Z,15.99
2023-05-16T12:03:45.481Z,16.01
2023-05-16T12:06:13.797Z,16.01
2023-05-16T12:08:52.323Z,15.99
2023-05-16T12:11:22.587Z,16.00
2023-05-16T12:13:51.393Z,16.01
2023-05-16T12:16:19.990Z,16.01
2023-05-16T12:18:48.885Z,16.01
2023-05-16T12:21:17.339Z,15.99
2023-05-16T12:23:45.683Z,15.97
2023-05-16T12:26:13.920Z,15.98
2023-05-16T12:28:42.514Z,15.98
2023-05-16T12:31:31.216Z,15.98
2023-05-16T12:34:01.123Z,15.99
2023-05-16T12:36:34.168Z,16.02
2023-05-16T12:39:04.573Z,16.00
2023-05-16T12:41:33.096Z,15.99
2023-05-16T12:44:18.538Z,15.96
2023-05-16T12:46:53.497Z,15.97
2023-05-16T12:49:25.236Z,15.97
2023-05-16T12:51:55.908Z,15.98
2023-05-16T12:54:24.806Z,15.98
2023-05-16T12:56:53.068Z,15.99
2023-05-16T12:59:21.529Z,16.01
2023-05-16T13:01:50.284Z,16.01
2023-05-16T13:04:20.667Z,16.02
2023-05-16T13:09:20.459Z,16.04
2023-05-16T13:11:49.484Z,16.06
2023-05-16T13:14:20.942Z,16.08
2023-05-16T13:16:49.553Z,16.08
2023-05-16T13:19:18.119Z,16.08
2023-05-16T13:21:46.391Z,16.07
2023-05-16T13:24:14.606Z,16.07
2023-05-16T13:26:42.814Z,16.05
2023-05-16T13:29:12.599Z,16.06
2023-05-16T13:31:40.890Z,16.04
2023-05-16T13:34:09.207Z,16.03
2023-05-16T13:36:52.184Z,16.05
2023-05-16T13:39:22.960Z,16.06
2023-05-16T13:41:51.854Z,16.07
2023-05-16T13:44:20.521Z,16.05
2023-05-16T13:46:49.645Z,15.99
2023-05-16T13:49:17.921Z,16.02
2023-05-16T13:51:46.331Z,16.05
2023-05-16T13:54:14.681Z,16.07
2023-05-16T13:56:42.995Z,16.09
2023-05-16T13:59:14.262Z,16.12
2023-05-16T14:01:46.852Z,16.15
2023-05-16T14:04:15.341Z,16.19
2023-05-16T14:06:43.696Z,16.22
2023-05-16T14:09:13.799Z,16.24
2023-05-16T14:11:42.148Z,16.25
2023-05-16T14:14:10.349Z,16.28
2023-05-16T14:16:38.720Z,16.30
2023-05-16T14:19:07.320Z,16.36
2023-05-16T14:21:35.616Z,16.38
2023-05-16T14:24:03.874Z,16.42
2023-05-16T14:26:33.173Z,16.42
2023-05-16T14:29:01.576Z,16.40
2023-05-16T14:31:31.065Z,16.43
2023-05-16T14:33:59.910Z,16.44
2023-05-16T14:36:28.156Z,16.47
2023-05-16T14:38:57.255Z,16.46
2023-05-16T14:41:25.592Z,16.51
2023-05-16T14:43:53.793Z,16.57
2023-05-16T14:46:22.098Z,16.61
2023-05-16T14:48:50.645Z,16.67
2023-05-16T14:51:18.875Z,16.69
2023-05-16T14:53:48.156Z,16.68
2023-05-16T14:56:17.228Z,16.73
2023-05-16T14:58:45.783Z,16.80
2023-05-16T15:01:14.172Z,16.86
2023-05-16T15:06:13.587Z,17.01
2023-05-16T15:08:42.414Z,17.07
2023-05-16T15:11:10.670Z,17.09
2023-05-16T15:13:39.062Z,17.09
2023-05-16T15:16:08.595Z,17.11
2023-05-16T15:18:37.154Z,17.06
2023-05-16T15:21:05.501Z,17.06
2023-05-16T15:23:34.026Z,17.09
2023-05-16T15:26:02.333Z,17.18
2023-05-16T15:28:30.610Z,17.22
2023-05-16T15:30:58.900Z,17.25
2023-05-16T15:33:27.251Z,17.33
2023-05-16T15:35:55.542Z,17.48
2023-05-16T15:38:23.847Z,17.67
2023-05-16T15:41:12.230Z,17.90
2023-05-16T15:43:41.369Z,18.07
2023-05-16T15:46:12.615Z,18.19
2023-05-16T15:48:45.598Z,18.26
2023-05-16T15:51:14.271Z,18.32
2023-05-16T15:53:42.613Z,18.39
2023-05-16T15:56:10.858Z,18.38
2023-05-16T15:58:39.165Z,18.35
2023-05-16T16:01:07.516Z,18.24
2023-05-16T16:03:35.983Z,18.22
2023-05-16T16:06:04.536Z,18.22
2023-05-16T16:08:32.799Z,18.25
2023-05-16T16:11:01.200Z,18.36
2023-05-16T16:13:29.541Z,18.36
2023-05-16T16:15:57.973Z,18.31
2023-05-16T16:18:26.251Z,18.28
2023-05-16T16:20:54.907Z,18.27
2023-05-16T16:23:23.219Z,18.29
2023-05-16T16:25:51.522Z,18.35
2023-05-16T16:28:21.177Z,18.44
2023-05-16T16:30:51.349Z,18.49
2023-05-16T16:33:19.708Z,18.61
2023-05-16T16:35:48.194Z,18.72
2023-05-16T16:38:17.226Z,18.82
2023-05-16T16:40:45.596Z,18.92
2023-05-16T16:43:14.016Z,18.95
2023-05-16T16:45:42.455Z,18.93
2023-05-16T16:48:11.595Z,18.91
2023-05-16T16:50:41.660Z,18.95
2023-05-16T16:53:10.725Z,19.04
2023-05-16T16:55:40.877Z,19.10
2023-05-16T16:58:09.397Z,19.11
2023-05-16T17:00:37.764Z,19.13
2023-05-16T17:03:06.173Z,19.17
2023-05-16T17:05:34.618Z,19.30
2023-05-16T17:08:03.001Z,19.44
2023-05-16T17:10:31.604Z,19.56
2023-05-16T17:13:06.780Z,19.58
2023-05-16T17:15:35.215Z,19.65
2023-05-16T17:18:03.547Z,19.72
2023-05-16T17:20:32.083Z,19.78
2023-05-16T17:23:00.320Z,19.78
2023-05-16T17:25:29.992Z,19.88
2023-05-16T17:27:58.551Z,20.02
2023-05-16T17:30:27.087Z,20.15
2023-05-16T17:32:55.429Z,20.25
2023-05-16T17:35:23.833Z,20.33
2023-05-16T17:37:52.343Z,20.28
2023-05-16T17:40:20.779Z,20.35
2023-05-16T17:42:49.318Z,20.45
2023-05-16T17:45:18.970Z,20.47
2023-05-16T17:47:47.321Z,20.51
2023-05-16T17:50:15.942Z,20.57
2023-05-16T17:52:44.992Z,20.66
2023-05-16T17:55:13.280Z,20.83
2023-05-16T17:57:42.184Z,21.04
2023-05-16T18:00:10.936Z,21.19
2023-05-16T18:02:40.301Z,21.33
2023-05-16T18:05:09.201Z,21.48
2023-05-16T18:07:37.486Z,21.58
2023-05-16T18:10:05.928Z,21.67
2023-05-16T18:12:34.186Z,21.67
2023-05-16T18:15:02.708Z,21.72
2023-05-16T18:17:30.950Z,21.88
2023-05-16T18:19:59.517Z,22.00
2023-05-16T18:22:28.703Z,22.04
2023-05-16T18:24:56.940Z,22.12
2023-05-16T18:27:25.183Z,22.17
2023-05-16T18:29:53.437Z,22.27
2023-05-16T18:32:22.475Z,22.32
2023-05-16T18:34:51.270Z,22.44
2023-05-16T18:37:19.526Z,22.49
2023-05-16T18:39:50.082Z,22.51
2023-05-16T18:42:18.569Z,22.58
2023-05-16T18:44:47.127Z,22.61
2023-05-16T18:47:16.660Z,22.64
2023-05-16T18:49:44.985Z,22.74
2023-05-16T18:52:13.339Z,22.94
2023-05-16T18:54:41.741Z,23.13
2023-05-16T18:57:10.024Z,23.26
2023-05-16T18:59:38.453Z,23.28
2023-05-16T19:02:06.801Z,23.24
2023-05-16T19:04:35.280Z,23.23
2023-05-16T19:07:05.161Z,23.38
2023-05-16T19:09:34.449Z,23.57
2023-05-16T19:12:02.747Z,23.66
2023-05-16T19:14:31.109Z,23.69
2023-05-16T19:16:59.430Z,23.72
2023-05-16T19:19:27.917Z,23.80
2023-05-16T19:21:56.404Z,23.84
2023-05-16T19:24:24.703Z,23.92
2023-05-16T19:26:52.945Z,24.13
2023-05-16T19:29:23.056Z,24.32
2023-05-16T19:31:51.361Z,24.32
2023-05-16T19:34:22.005Z,24.37
2023-05-16T19:36:50.888Z,24.45
2023-05-16T19:39:19.308Z,24.52
2023-05-16T19:41:51.655Z,24.62
2023-05-16T19:44:20.607Z,24.63
2023-05-16T19:46:49.058Z,24.72
2023-05-16T19:49:19.623Z,24.85
2023-05-16T19:51:49.076Z,25.08
2023-05-16T19:54:17.364Z,25.20
2023-05-16T19:56:45.614Z,25.25
2023-05-16T19:59:13.875Z,25.41
2023-05-16T20:01:42.302Z,25.38
2023-05-16T20:04:10.824Z,25.38
2023-05-16T20:06:39.235Z,25.45
2023-05-16T20:09:08.114Z,25.63
2023-05-16T20:11:36.452Z,25.75
2023-05-16T20:14:04.740Z,25.76
2023-05-16T20:16:33.057Z,25.95
2023-05-16T20:19:01.984Z,26.17
2023-05-16T20:21:30.251Z,26.38
2023-05-16T20:23:58.494Z,26.33
2023-05-16T20:26:26.737Z,26.32
2023-05-16T20:28:54.979Z,26.44
2023-05-16T20:31:23.222Z,26.51
2023-05-16T20:33:51.559Z,26.81
2023-05-16T20:36:19.950Z,27.16
2023-05-16T20:38:48.513Z,27.30
2023-05-16T20:41:16.893Z,27.36
2023-05-16T20:43:45.262Z,27.44
2023-05-16T20:46:13.550Z,27.65
2023-05-16T20:48:41.875Z,27.91
2023-05-16T20:51:10.228Z,28.03
2023-05-16T20:53:38.520Z,28.10
2023-05-16T20:56:07.118Z,28.26
2023-05-16T20:58:35.399Z,28.23
2023-05-16T21:01:03.600Z,28.14
2023-05-16T21:03:31.976Z,28.37
2023-05-16T21:06:00.289Z,28.62
2023-05-16T21:08:28.594Z,28.75
2023-05-16T21:10:56.906Z,28.87
2023-05-16T21:13:25.296Z,29.09
2023-05-16T21:15:53.636Z,29.13
2023-05-16T21:18:22.136Z,29.22
2023-05-16T21:20:50.778Z,29.36
2023-05-16T21:23:19.046Z,29.37
2023-05-16T21:25:47.304Z,29.46
2023-05-16T21:28:15.601Z,29.50
2023-05-16T21:30:43.806Z,29.49
2023-05-16T21:33:12.432Z,29.57
2023-05-16T21:35:40.726Z,29.97
2023-05-16T21:38:08.976Z,30.03
2023-05-16T21:40:37.205Z,30.09
2023-05-16T21:43:05.412Z,30.14
2023-05-16T21:45:33.706Z,30.32
2023-05-16T21:48:02.069Z,30.52
2023-05-16T21:50:30.432Z,30.40
2023-05-16T21:52:58.656Z,30.18
2023-05-16T21:55:27.331Z,30.24
2023-05-16T21:57:55.741Z,30.15
2023-05-16T22:00:24.286Z,30.18
2023-05-16T22:02:52.596Z,30.17
2023-05-16T22:05:21.121Z,30.23
2023-05-16T22:07:49.404Z,30.15
2023-05-16T22:10:19.405Z,30.29
2023-05-16T22:12:47.695Z,30.33
2023-05-16T22:15:15.932Z,30.37
2023-05-16T22:17:44.229Z,30.29
2023-05-16T22:20:12.954Z,30.40
2023-05-16T22:22:41.699Z,30.65
2023-05-16T22:25:10.336Z,30.90
2023-05-16T22:27:38.677Z,30.97
2023-05-16T22:30:07.811Z,30.84
2023-05-16T22:32:36.227Z,30.77
2023-05-16T22:35:04.613Z,30.60
2023-05-16T22:37:32.918Z,30.52
2023-05-16T22:40:01.255Z,30.43
2023-05-16T22:42:29.607Z,30.30
2023-05-16T22:44:58.104Z,30.33
2023-05-16T22:47:26.404Z,30.25
2023-05-16T22:49:54.632Z,30.20
2023-05-16T22:52:23.015Z,30.05
2023-05-16T22:54:51.441Z,30.13
2023-05-16T22:57:19.780Z,30.03
2023-05-16T22:59:48.300Z,29.85
2023-05-16T23:02:16.668Z,29.75
2023-05-16T23:04:45.052Z,29.63
2023-05-16T23:07:13.350Z,29.50
2023-05-16T23:09:41.669Z,29.45
2023-05-16T23:12:10.392Z,29.35
2023-05-16T23:14:38.637Z,29.36
2023-05-16T23:17:07.260Z,29.31
2023-05-16T23:19:35.700Z,29.20
2023-05-16T23:22:04.307Z,29.03
2023-05-16T23:24:32.756Z,28.95
2023-05-16T23:27:00.951Z,28.91
2023-05-16T23:29:29.187Z,28.76
2023-05-16T23:31:57.576Z,28.59
2023-05-16T23:34:27.680Z,28.51
2023-05-16T23:36:56.061Z,28.54
2023-05-16T23:39:24.354Z,28.45
2023-05-16T23:41:52.636Z,28.42
2023-05-16T23:44:20.907Z,28.40
2023-05-16T23:46:49.463Z,28.37
2023-05-16T23:49:17.690Z,28.28
2023-05-16T23:54:20.938Z,28.23
2023-05-16T23:56:49.272Z,28.11
2023-05-16T23:59:17.618Z,28.04
